sensor_id;sensor_type;location;lat;lon;timestamp;pressure;altitude;pressure_sealevel;temperature;humidity
77147;BME280;66121;52.584;9.694;2023-02-28T00:00:22;102809.72;;;-2.49;84.12
77147;BME280;66121;52.584;9.694;2023-02-28T00:02:48;102820.84;;;-2.46;83.69
77147;BME280;66121;52.584;9.694;2023-02-28T00:05:19;102822.16;;;-2.48;83.63
77147;BME280;66121;52.584;9.694;2023-02-28T00:07:45;102827.94;;;-2.56;84.90
77147;BME280;66121;52.584;9.694;2023-02-28T00:10:13;102817.75;;;-2.54;84.50
77147;BME280;66121;52.584;9.694;2023-02-28T00:12:39;102826.06;;;-2.56;84.24
77147;BME280;66121;52.584;9.694;2023-02-28T00:15:06;102829.22;;;-2.47;82.90
77147;BME280;66121;52.584;9.694;2023-02-28T00:17:32;102821.00;;;-2.52;82.77
77147;BME280;66121;52.584;9.694;2023-02-28T00:19:57;102839.38;;;-2.54;83.66
77147;BME280;66121;52.584;9.694;2023-02-28T00:22:30;102842.69;;;-2.64;82.89
77147;BME280;66121;52.584;9.694;2023-02-28T00:24:55;102840.81;;;-2.64;84.27
77147;BME280;66121;52.584;9.694;2023-02-28T00:27:20;102838.81;;;-2.68;83.52
77147;BME280;66121;52.584;9.694;2023-02-28T00:29:46;102834.09;;;-2.61;84.33
77147;BME280;66121;52.584;9.694;2023-02-28T00:32:12;102836.78;;;-2.61;83.25
77147;BME280;66121;52.584;9.694;2023-02-28T00:34:37;102834.56;;;-2.64;82.63
77147;BME280;66121;52.584;9.694;2023-02-28T00:37:07;102836.38;;;-2.70;84.27
77147;BME280;66121;52.584;9.694;2023-02-28T00:39:35;102836.66;;;-2.83;84.71
77147;BME280;66121;52.584;9.694;2023-02-28T00:42:00;102829.75;;;-2.90;86.08
77147;BME280;66121;52.584;9.694;2023-02-28T00:44:27;102829.41;;;-2.94;83.71
77147;BME280;66121;52.584;9.694;2023-02-28T00:46:52;102831.63;;;-2.91;85.08
77147;BME280;66121;52.584;9.694;2023-02-28T00:49:19;102825.81;;;-2.99;85.23
77147;BME280;66121;52.584;9.694;2023-02-28T00:51:45;102840.47;;;-2.95;85.10
77147;BME280;66121;52.584;9.694;2023-02-28T00:54:10;102836.81;;;-2.89;84.21
77147;BME280;66121;52.584;9.694;2023-02-28T00:56:35;102834.81;;;-2.94;83.87
77147;BME280;66121;52.584;9.694;2023-02-28T00:59:01;102844.81;;;-2.94;83.70
77147;BME280;66121;52.584;9.694;2023-02-28T01:01:26;102825.22;;;-3.01;84.66
77147;BME280;66121;52.584;9.694;2023-02-28T01:03:51;102830.03;;;-2.92;83.81
77147;BME280;66121;52.584;9.694;2023-02-28T01:06:17;102837.41;;;-2.87;84.18
77147;BME280;66121;52.584;9.694;2023-02-28T01:08:42;102836.13;;;-2.96;84.39
77147;BME280;66121;52.584;9.694;2023-02-28T01:11:09;102835.31;;;-2.97;84.50
77147;BME280;66121;52.584;9.694;2023-02-28T01:13:35;102830.03;;;-3.03;83.03
77147;BME280;66121;52.584;9.694;2023-02-28T01:16:00;102832.41;;;-3.07;84.60
77147;BME280;66121;52.584;9.694;2023-02-28T01:18:25;102838.28;;;-3.10;83.50
77147;BME280;66121;52.584;9.694;2023-02-28T01:20:51;102829.00;;;-3.14;84.57
77147;BME280;66121;52.584;9.694;2023-02-28T01:23:18;102830.41;;;-3.11;84.99
77147;BME280;66121;52.584;9.694;2023-02-28T01:25:44;102833.50;;;-3.19;84.32
77147;BME280;66121;52.584;9.694;2023-02-28T01:28:09;102836.06;;;-3.13;84.19
77147;BME280;66121;52.584;9.694;2023-02-28T01:30:34;102828.44;;;-3.16;84.25
77147;BME280;66121;52.584;9.694;2023-02-28T01:33:00;102836.44;;;-3.21;83.34
77147;BME280;66121;52.584;9.694;2023-02-28T01:35:25;102844.63;;;-3.16;83.33
77147;BME280;66121;52.584;9.694;2023-02-28T01:37:50;102840.53;;;-3.18;83.04
77147;BME280;66121;52.584;9.694;2023-02-28T01:40:16;102840.44;;;-3.23;83.84
77147;BME280;66121;52.584;9.694;2023-02-28T01:42:41;102831.75;;;-3.26;84.26
77147;BME280;66121;52.584;9.694;2023-02-28T01:47:44;102835.06;;;-3.35;84.57
77147;BME280;66121;52.584;9.694;2023-02-28T01:50:15;102836.00;;;-3.41;84.49
77147;BME280;66121;52.584;9.694;2023-02-28T01:52:42;102827.56;;;-3.56;85.12
77147;BME280;66121;52.584;9.694;2023-02-28T01:55:08;102832.41;;;-3.47;84.60
77147;BME280;66121;52.584;9.694;2023-02-28T01:57:38;102813.63;;;-3.53;82.61
77147;BME280;66121;52.584;9.694;2023-02-28T02:00:10;102827.81;;;-3.35;83.87
77147;BME280;66121;52.584;9.694;2023-02-28T02:02:42;102824.41;;;-3.42;83.79
77147;BME280;66121;52.584;9.694;2023-02-28T02:05:11;102824.31;;;-3.47;84.32
77147;BME280;66121;52.584;9.694;2023-02-28T02:07:39;102816.56;;;-3.66;84.85
77147;BME280;66121;52.584;9.694;2023-02-28T02:10:14;102822.06;;;-3.61;83.46
77147;BME280;66121;52.584;9.694;2023-02-28T02:18:18;102816.69;;;-3.61;83.67
77147;BME280;66121;52.584;9.694;2023-02-28T02:23:51;102806.63;;;-3.77;85.12
77147;BME280;66121;52.584;9.694;2023-02-28T02:35:39;102811.78;;;-3.64;82.48
77147;BME280;66121;52.584;9.694;2023-02-28T02:37:48;102808.59;;;-3.61;82.97
77147;BME280;66121;52.584;9.694;2023-02-28T02:40:18;102804.63;;;-3.70;83.44
77147;BME280;66121;52.584;9.694;2023-02-28T02:42:50;102816.56;;;-3.66;82.80
77147;BME280;66121;52.584;9.694;2023-02-28T02:45:27;102811.56;;;-3.74;82.88
77147;BME280;66121;52.584;9.694;2023-02-28T02:48:01;102811.22;;;-3.89;84.39
77147;BME280;66121;52.584;9.694;2023-02-28T02:50:32;102810.38;;;-4.02;84.59
77147;BME280;66121;52.584;9.694;2023-02-28T02:53:01;102814.72;;;-4.01;85.34
77147;BME280;66121;52.584;9.694;2023-02-28T02:55:28;102817.88;;;-4.04;85.28
77147;BME280;66121;52.584;9.694;2023-02-28T02:58:00;102814.50;;;-3.99;85.15
77147;BME280;66121;52.584;9.694;2023-02-28T03:00:36;102806.28;;;-4.04;84.37
77147;BME280;66121;52.584;9.694;2023-02-28T03:03:03;102815.78;;;-3.90;82.94
77147;BME280;66121;52.584;9.694;2023-02-28T03:05:38;102801.00;;;-4.22;82.50
77147;BME280;66121;52.584;9.694;2023-02-28T03:08:06;102812.94;;;-4.18;83.78
77147;BME280;66121;52.584;9.694;2023-02-28T03:10:38;102821.59;;;-4.28;84.92
77147;BME280;66121;52.584;9.694;2023-02-28T03:16:49;102814.00;;;-4.19;83.03
77147;BME280;66121;52.584;9.694;2023-02-28T03:20:40;102808.13;;;-4.16;83.62
77147;BME280;66121;52.584;9.694;2023-02-28T03:25:23;102811.31;;;-4.19;82.89
77147;BME280;66121;52.584;9.694;2023-02-28T03:28:00;102816.09;;;-4.21;83.16
77147;BME280;66121;52.584;9.694;2023-02-28T03:33:18;102801.69;;;-4.27;83.84
77147;BME280;66121;52.584;9.694;2023-02-28T03:35:59;102797.13;;;-4.26;84.37
77147;BME280;66121;52.584;9.694;2023-02-28T03:38:47;102809.53;;;-4.25;83.26
77147;BME280;66121;52.584;9.694;2023-02-28T03:41:23;102806.00;;;-4.37;83.35
77147;BME280;66121;52.584;9.694;2023-02-28T03:43:53;102805.56;;;-4.34;84.50
77147;BME280;66121;52.584;9.694;2023-02-28T03:46:23;102803.69;;;-4.34;83.95
77147;BME280;66121;52.584;9.694;2023-02-28T03:49:08;102804.84;;;-4.30;84.08
77147;BME280;66121;52.584;9.694;2023-02-28T03:51:38;102800.38;;;-4.36;84.26
77147;BME280;66121;52.584;9.694;2023-02-28T03:54:10;102801.16;;;-4.59;84.89
77147;BME280;66121;52.584;9.694;2023-02-28T03:56:41;102812.63;;;-4.63;85.11
77147;BME280;66121;52.584;9.694;2023-02-28T03:59:36;102788.63;;;-4.65;84.63
77147;BME280;66121;52.584;9.694;2023-02-28T04:02:03;102802.81;;;-4.58;84.44
77147;BME280;66121;52.584;9.694;2023-02-28T04:04:29;102804.72;;;-4.46;82.78
77147;BME280;66121;52.584;9.694;2023-02-28T04:07:02;102807.38;;;-4.58;82.21
77147;BME280;66121;52.584;9.694;2023-02-28T04:09:28;102805.81;;;-4.66;83.65
77147;BME280;66121;52.584;9.694;2023-02-28T04:11:53;102795.03;;;-4.77;84.50
77147;BME280;66121;52.584;9.694;2023-02-28T04:14:21;102811.59;;;-4.62;83.82
77147;BME280;66121;52.584;9.694;2023-02-28T04:16:46;102814.03;;;-4.61;82.95
77147;BME280;66121;52.584;9.694;2023-02-28T04:19:12;102809.34;;;-4.65;82.95
77147;BME280;66121;52.584;9.694;2023-02-28T04:21:41;102826.66;;;-4.61;82.51
77147;BME280;66121;52.584;9.694;2023-02-28T04:24:09;102819.88;;;-4.64;83.86
77147;BME280;66121;52.584;9.694;2023-02-28T04:26:40;102807.34;;;-4.70;83.31
77147;BME280;66121;52.584;9.694;2023-02-28T04:29:06;102813.69;;;-4.64;82.45
77147;BME280;66121;52.584;9.694;2023-02-28T04:31:33;102814.72;;;-4.65;82.66
77147;BME280;66121;52.584;9.694;2023-02-28T04:33:58;102814.97;;;-4.67;83.34
77147;BME280;66121;52.584;9.694;2023-02-28T04:36:24;102820.22;;;-4.72;84.26
77147;BME280;66121;52.584;9.694;2023-02-28T04:38:50;102824.19;;;-4.74;82.49
77147;BME280;66121;52.584;9.694;2023-02-28T04:41:16;102817.75;;;-4.73;83.32
77147;BME280;66121;52.584;9.694;2023-02-28T04:43:41;102825.47;;;-4.77;82.68
77147;BME280;66121;52.584;9.694;2023-02-28T04:46:08;102824.50;;;-4.82;82.76
77147;BME280;66121;52.584;9.694;2023-02-28T04:48:36;102833.44;;;-5.00;82.39
77147;BME280;66121;52.584;9.694;2023-02-28T04:51:07;102829.03;;;-4.94;83.32
77147;BME280;66121;52.584;9.694;2023-02-28T04:53:34;102826.66;;;-5.02;84.51
77147;BME280;66121;52.584;9.694;2023-02-28T04:56:00;102821.50;;;-5.04;84.87
77147;BME280;66121;52.584;9.694;2023-02-28T04:58:26;102824.94;;;-4.97;84.32
77147;BME280;66121;52.584;9.694;2023-02-28T05:00:52;102821.66;;;-4.99;83.75
77147;BME280;66121;52.584;9.694;2023-02-28T05:03:18;102832.41;;;-4.99;82.85
77147;BME280;66121;52.584;9.694;2023-02-28T05:05:43;102824.09;;;-4.97;83.54
77147;BME280;66121;52.584;9.694;2023-02-28T05:08:08;102825.97;;;-4.98;82.92
77147;BME280;66121;52.584;9.694;2023-02-28T05:10:35;102830.44;;;-4.92;82.94
77147;BME280;66121;52.584;9.694;2023-02-28T05:13:00;102835.91;;;-4.98;83.04
77147;BME280;66121;52.584;9.694;2023-02-28T05:15:25;102824.53;;;-5.00;83.26
77147;BME280;66121;52.584;9.694;2023-02-28T05:17:51;102824.53;;;-5.00;84.02
77147;BME280;66121;52.584;9.694;2023-02-28T05:20:16;102813.94;;;-5.13;82.26
77147;BME280;66121;52.584;9.694;2023-02-28T05:22:43;102826.88;;;-5.04;82.51
77147;BME280;66121;52.584;9.694;2023-02-28T05:25:13;102834.00;;;-5.09;83.76
77147;BME280;66121;52.584;9.694;2023-02-28T05:27:41;102833.22;;;-4.98;83.96
77147;BME280;66121;52.584;9.694;2023-02-28T05:30:07;102832.72;;;-5.07;83.39
77147;BME280;66121;52.584;9.694;2023-02-28T05:32:36;102832.66;;;-5.18;84.16
77147;BME280;66121;52.584;9.694;2023-02-28T05:35:01;102833.13;;;-5.22;82.96
77147;BME280;66121;52.584;9.694;2023-02-28T05:37:27;102822.22;;;-5.27;82.58
77147;BME280;66121;52.584;9.694;2023-02-28T05:39:52;102833.41;;;-5.11;82.33
77147;BME280;66121;52.584;9.694;2023-02-28T05:42:17;102828.09;;;-5.18;82.78
77147;BME280;66121;52.584;9.694;2023-02-28T05:44:43;102825.25;;;-5.23;82.37
77147;BME280;66121;52.584;9.694;2023-02-28T05:47:08;102826.16;;;-5.29;82.04
77147;BME280;66121;52.584;9.694;2023-02-28T05:49:33;102830.19;;;-5.20;83.49
77147;BME280;66121;52.584;9.694;2023-02-28T05:51:59;102835.41;;;-5.25;83.44
77147;BME280;66121;52.584;9.694;2023-02-28T05:54:24;102832.97;;;-5.27;82.77
77147;BME280;66121;52.584;9.694;2023-02-28T05:56:50;102833.72;;;-5.38;83.57
77147;BME280;66121;52.584;9.694;2023-02-28T05:59:15;102832.53;;;-5.42;84.47
77147;BME280;66121;52.584;9.694;2023-02-28T06:01:42;102840.16;;;-5.39;83.08
77147;BME280;66121;52.584;9.694;2023-02-28T06:04:12;102844.41;;;-5.31;83.15
77147;BME280;66121;52.584;9.694;2023-02-28T06:06:40;102848.97;;;-5.32;83.89
77147;BME280;66121;52.584;9.694;2023-02-28T06:09:05;102845.28;;;-5.37;83.99
77147;BME280;66121;52.584;9.694;2023-02-28T06:11:31;102830.44;;;-5.40;83.07
77147;BME280;66121;52.584;9.694;2023-02-28T06:13:58;102836.94;;;-5.29;82.93
77147;BME280;66121;52.584;9.694;2023-02-28T06:16:25;102843.59;;;-5.32;82.70
77147;BME280;66121;52.584;9.694;2023-02-28T06:18:51;102846.72;;;-5.35;83.36
77147;BME280;66121;52.584;9.694;2023-02-28T06:21:18;102825.13;;;-5.46;83.54
77147;BME280;66121;52.584;9.694;2023-02-28T06:23:43;102833.34;;;-5.41;83.24
77147;BME280;66121;52.584;9.694;2023-02-28T06:26:09;102842.75;;;-5.32;82.98
77147;BME280;66121;52.584;9.694;2023-02-28T06:28:34;102847.91;;;-5.31;81.91
77147;BME280;66121;52.584;9.694;2023-02-28T06:31:06;102858.00;;;-5.26;82.91
77147;BME280;66121;52.584;9.694;2023-02-28T06:33:31;102837.00;;;-5.36;84.08
77147;BME280;66121;52.584;9.694;2023-02-28T06:35:57;102865.31;;;-5.15;82.99
77147;BME280;66121;52.584;9.694;2023-02-28T06:38:22;102868.53;;;-5.06;83.38
77147;BME280;66121;52.584;9.694;2023-02-28T06:40:55;102858.22;;;-5.09;83.46
77147;BME280;66121;52.584;9.694;2023-02-28T06:43:20;102869.41;;;-5.12;84.09
77147;BME280;66121;52.584;9.694;2023-02-28T06:45:46;102853.56;;;-5.21;83.83
77147;BME280;66121;52.584;9.694;2023-02-28T06:48:11;102871.03;;;-4.93;84.35
77147;BME280;66121;52.584;9.694;2023-02-28T06:50:36;102867.47;;;-5.05;84.91
77147;BME280;66121;52.584;9.694;2023-02-28T06:53:02;102880.19;;;-5.12;84.94
77147;BME280;66121;52.584;9.694;2023-02-28T06:55:27;102884.88;;;-5.08;84.81
77147;BME280;66121;52.584;9.694;2023-02-28T06:57:53;102885.28;;;-5.04;84.95
77147;BME280;66121;52.584;9.694;2023-02-28T07:00:20;102883.75;;;-5.00;84.72
77147;BME280;66121;52.584;9.694;2023-02-28T07:02:45;102882.13;;;-5.01;84.77
77147;BME280;66121;52.584;9.694;2023-02-28T07:05:12;102889.09;;;-4.94;85.18
77147;BME280;66121;52.584;9.694;2023-02-28T07:07:37;102891.13;;;-4.78;85.18
77147;BME280;66121;52.584;9.694;2023-02-28T07:10:05;102890.38;;;-4.67;84.56
77147;BME280;66121;52.584;9.694;2023-02-28T07:12:31;102900.00;;;-4.59;83.89
77147;BME280;66121;52.584;9.694;2023-02-28T07:14:56;102894.47;;;-4.34;84.97
77147;BME280;66121;52.584;9.694;2023-02-28T07:17:22;102895.78;;;-4.14;84.73
77147;BME280;66121;52.584;9.694;2023-02-28T07:19:47;102905.53;;;-4.01;84.79
77147;BME280;66121;52.584;9.694;2023-02-28T07:22:12;102900.66;;;-3.93;84.75
77147;BME280;66121;52.584;9.694;2023-02-28T07:24:37;102903.72;;;-3.89;83.83
77147;BME280;66121;52.584;9.694;2023-02-28T07:27:03;102904.88;;;-3.73;84.93
77147;BME280;66121;52.584;9.694;2023-02-28T07:29:28;102885.53;;;-3.70;85.08
77147;BME280;66121;52.584;9.694;2023-02-28T07:31:54;102897.25;;;-3.53;85.09
77147;BME280;66121;52.584;9.694;2023-02-28T07:34:20;102898.22;;;-3.48;83.83
77147;BME280;66121;52.584;9.694;2023-02-28T07:36:46;102898.06;;;-3.41;84.33
77147;BME280;66121;52.584;9.694;2023-02-28T07:39:11;102893.59;;;-3.24;84.72
77147;BME280;66121;52.584;9.694;2023-02-28T07:41:36;102896.06;;;-3.22;84.50
77147;BME280;66121;52.584;9.694;2023-02-28T07:44:11;102893.69;;;-3.19;84.11
77147;BME280;66121;52.584;9.694;2023-02-28T07:46:37;102902.38;;;-3.05;85.70
77147;BME280;66121;52.584;9.694;2023-02-28T07:49:03;102903.06;;;-2.98;86.24
77147;BME280;66121;52.584;9.694;2023-02-28T07:51:29;102898.53;;;-2.81;85.56
77147;BME280;66121;52.584;9.694;2023-02-28T07:53:55;102913.81;;;-2.75;85.06
77147;BME280;66121;52.584;9.694;2023-02-28T07:56:21;102899.38;;;-2.81;84.49
77147;BME280;66121;52.584;9.694;2023-02-28T07:58:46;102902.03;;;-2.69;84.69
77147;BME280;66121;52.584;9.694;2023-02-28T08:01:12;102904.72;;;-2.69;84.78
77147;BME280;66121;52.584;9.694;2023-02-28T08:03:38;102902.28;;;-2.71;83.81
77147;BME280;66121;52.584;9.694;2023-02-28T08:06:05;102912.47;;;-2.61;84.59
77147;BME280;66121;52.584;9.694;2023-02-28T08:08:31;102907.78;;;-2.37;84.12
77147;BME280;66121;52.584;9.694;2023-02-28T08:11:00;102908.00;;;-2.39;84.60
77147;BME280;66121;52.584;9.694;2023-02-28T08:13:27;102898.13;;;-2.33;84.90
77147;BME280;66121;52.584;9.694;2023-02-28T08:15:53;102900.09;;;-2.29;83.58
77147;BME280;66121;52.584;9.694;2023-02-28T08:18:20;102905.28;;;-1.94;83.51
77147;BME280;66121;52.584;9.694;2023-02-28T08:20:45;102900.47;;;-1.92;84.02
77147;BME280;66121;52.584;9.694;2023-02-28T08:23:10;102907.59;;;-1.86;84.52
77147;BME280;66121;52.584;9.694;2023-02-28T08:25:36;102902.09;;;-1.91;83.70
77147;BME280;66121;52.584;9.694;2023-02-28T08:28:01;102900.06;;;-1.67;84.12
77147;BME280;66121;52.584;9.694;2023-02-28T08:30:26;102905.28;;;-1.61;83.15
77147;BME280;66121;52.584;9.694;2023-02-28T08:32:51;102909.19;;;-1.52;83.04
77147;BME280;66121;52.584;9.694;2023-02-28T08:35:17;102899.03;;;-1.61;83.16
77147;BME280;66121;52.584;9.694;2023-02-28T08:37:42;102908.16;;;-1.51;83.22
77147;BME280;66121;52.584;9.694;2023-02-28T08:40:08;102915.69;;;-1.14;82.61
77147;BME280;66121;52.584;9.694;2023-02-28T08:42:34;102913.69;;;-0.59;81.62
77147;BME280;66121;52.584;9.694;2023-02-28T08:44:59;102913.22;;;-0.24;78.97
77147;BME280;66121;52.584;9.694;2023-02-28T08:47:24;102908.59;;;0.03;78.22
77147;BME280;66121;52.584;9.694;2023-02-28T08:49:50;102914.06;;;0.40;77.38
77147;BME280;66121;52.584;9.694;2023-02-28T08:52:15;102931.22;;;0.87;76.23
77147;BME280;66121;52.584;9.694;2023-02-28T08:54:40;102921.06;;;1.19;74.86
77147;BME280;66121;52.584;9.694;2023-02-28T08:57:06;102922.88;;;1.86;72.71
77147;BME280;66121;52.584;9.694;2023-02-28T08:59:33;102932.16;;;2.35;70.49
77147;BME280;66121;52.584;9.694;2023-02-28T09:01:59;102918.22;;;2.62;70.02
77147;BME280;66121;52.584;9.694;2023-02-28T09:04:24;102936.19;;;2.83;70.14
77147;BME280;66121;52.584;9.694;2023-02-28T09:06:49;102924.47;;;3.47;67.15
77147;BME280;66121;52.584;9.694;2023-02-28T09:09:15;102934.09;;;3.83;65.83
77147;BME280;66121;52.584;9.694;2023-02-28T09:11:41;102936.97;;;4.02;64.68
77147;BME280;66121;52.584;9.694;2023-02-28T09:14:06;102935.25;;;4.44;64.54
77147;BME280;66121;52.584;9.694;2023-02-28T09:16:32;102930.72;;;4.64;62.76
77147;BME280;66121;52.584;9.694;2023-02-28T09:18:58;102933.50;;;4.59;61.98
77147;BME280;66121;52.584;9.694;2023-02-28T09:21:23;102930.63;;;4.97;62.29
77147;BME280;66121;52.584;9.694;2023-02-28T09:23:50;102932.31;;;5.17;59.99
77147;BME280;66121;52.584;9.694;2023-02-28T09:26:22;102933.94;;;4.94;59.53
77147;BME280;66121;52.584;9.694;2023-02-28T09:28:49;102933.25;;;5.07;59.06
77147;BME280;66121;52.584;9.694;2023-02-28T09:31:20;102931.69;;;5.44;58.51
77147;BME280;66121;52.584;9.694;2023-02-28T09:33:47;102931.94;;;5.66;58.57
77147;BME280;66121;52.584;9.694;2023-02-28T09:36:13;102928.28;;;5.94;56.87
77147;BME280;66121;52.584;9.694;2023-02-28T09:38:38;102936.59;;;6.40;54.58
77147;BME280;66121;52.584;9.694;2023-02-28T09:41:14;102933.19;;;6.62;53.31
77147;BME280;66121;52.584;9.694;2023-02-28T09:43:44;102933.44;;;6.92;55.55
77147;BME280;66121;52.584;9.694;2023-02-28T09:46:29;102937.72;;;7.12;53.01
77147;BME280;66121;52.584;9.694;2023-02-28T09:48:57;102932.00;;;6.81;52.76
77147;BME280;66121;52.584;9.694;2023-02-28T09:51:30;102942.50;;;7.20;53.39
77147;BME280;66121;52.584;9.694;2023-02-28T09:53:58;102938.75;;;7.02;52.23
77147;BME280;66121;52.584;9.694;2023-02-28T09:56:28;102923.75;;;7.49;53.09
77147;BME280;66121;52.584;9.694;2023-02-28T09:59:04;102935.47;;;7.41;51.68
77147;BME280;66121;52.584;9.694;2023-02-28T10:01:39;102938.28;;;7.63;51.45
77147;BME280;66121;52.584;9.694;2023-02-28T10:04:25;102929.09;;;8.04;52.08
77147;BME280;66121;52.584;9.694;2023-02-28T10:06:56;102938.31;;;7.36;51.66
77147;BME280;66121;52.584;9.694;2023-02-28T10:09:26;102938.38;;;7.58;51.23
77147;BME280;66121;52.584;9.694;2023-02-28T10:11:54;102935.16;;;7.56;51.08
77147;BME280;66121;52.584;9.694;2023-02-28T10:14:23;102936.88;;;7.88;51.38
77147;BME280;66121;52.584;9.694;2023-02-28T10:16:55;102931.47;;;7.97;49.70
77147;BME280;66121;52.584;9.694;2023-02-28T10:19:32;102933.81;;;8.70;49.98
77147;BME280;66121;52.584;9.694;2023-02-28T10:22:08;102936.78;;;8.15;47.91
77147;BME280;66121;52.584;9.694;2023-02-28T10:24:41;102923.44;;;8.75;47.73
77147;BME280;66121;52.584;9.694;2023-02-28T10:27:18;102942.03;;;8.39;45.39
77147;BME280;66121;52.584;9.694;2023-02-28T10:29:47;102943.50;;;7.10;47.17
77147;BME280;66121;52.584;9.694;2023-02-28T10:32:16;102944.03;;;6.85;48.21
77147;BME280;66121;52.584;9.694;2023-02-28T10:34:42;102934.59;;;7.05;49.15
77147;BME280;66121;52.584;9.694;2023-02-28T10:37:08;102932.75;;;7.14;48.56
77147;BME280;66121;52.584;9.694;2023-02-28T10:39:39;102926.19;;;7.64;47.68
77147;BME280;66121;52.584;9.694;2023-02-28T10:42:26;102933.19;;;8.06;47.21
77147;BME280;66121;52.584;9.694;2023-02-28T10:45:07;102940.09;;;7.68;46.88
77147;BME280;66121;52.584;9.694;2023-02-28T10:47:59;102919.53;;;7.79;48.76
77147;BME280;66121;52.584;9.694;2023-02-28T10:53:30;102934.56;;;6.91;44.55
77147;BME280;66121;52.584;9.694;2023-02-28T10:56:06;102934.41;;;6.56;45.24
77147;BME280;66121;52.584;9.694;2023-02-28T10:59:28;102922.47;;;7.20;42.76
77147;BME280;66121;52.584;9.694;2023-02-28T11:01:48;102921.28;;;6.53;43.77
77147;BME280;66121;52.584;9.694;2023-02-28T11:07:21;102920.34;;;6.43;45.17
77147;BME280;66121;52.584;9.694;2023-02-28T11:09:49;102912.47;;;6.69;44.19
77147;BME280;66121;52.584;9.694;2023-02-28T11:12:38;102917.28;;;6.91;44.40
77147;BME280;66121;52.584;9.694;2023-02-28T11:15:18;102912.13;;;7.03;43.01
77147;BME280;66121;52.584;9.694;2023-02-28T11:17:54;102908.53;;;6.29;43.30
77147;BME280;66121;52.584;9.694;2023-02-28T11:20:23;102902.31;;;7.38;45.22
77147;BME280;66121;52.584;9.694;2023-02-28T11:22:50;102897.31;;;7.89;44.37
77147;BME280;66121;52.584;9.694;2023-02-28T11:25:26;102898.53;;;8.05;44.08
77147;BME280;66121;52.584;9.694;2023-02-28T11:28:02;102892.53;;;8.48;41.19
77147;BME280;66121;52.584;9.694;2023-02-28T11:30:41;102881.16;;;7.38;42.09
77147;BME280;66121;52.584;9.694;2023-02-28T11:36:03;102876.63;;;7.20;42.38
77147;BME280;66121;52.584;9.694;2023-02-28T11:38:31;102884.25;;;7.72;43.16
77147;BME280;66121;52.584;9.694;2023-02-28T11:41:20;102883.09;;;7.38;43.65
77147;BME280;66121;52.584;9.694;2023-02-28T11:46:50;102885.22;;;7.41;44.50
77147;BME280;66121;52.584;9.694;2023-02-28T11:52:16;102873.28;;;8.78;44.17
77147;BME280;66121;52.584;9.694;2023-02-28T11:55:07;102873.00;;;8.88;44.00
77147;BME280;66121;52.584;9.694;2023-02-28T12:03:15;102871.47;;;8.43;44.73
77147;BME280;66121;52.584;9.694;2023-02-28T12:05:45;102871.47;;;8.74;42.14
77147;BME280;66121;52.584;9.694;2023-02-28T12:11:09;102861.44;;;8.69;43.59
77147;BME280;66121;52.584;9.694;2023-02-28T12:16:37;102857.84;;;8.29;45.16
77147;BME280;66121;52.584;9.694;2023-02-28T12:19:25;102867.19;;;8.06;43.66
77147;BME280;66121;52.584;9.694;2023-02-28T12:27:46;102852.31;;;8.07;44.69
77147;BME280;66121;52.584;9.694;2023-02-28T12:32:54;102837.97;;;8.41;44.26
77147;BME280;66121;52.584;9.694;2023-02-28T12:36:08;102836.75;;;8.56;43.99
77147;BME280;66121;52.584;9.694;2023-02-28T12:38:14;102832.94;;;8.34;42.19
77147;BME280;66121;52.584;9.694;2023-02-28T12:40:45;102831.09;;;8.52;43.56
77147;BME280;66121;52.584;9.694;2023-02-28T12:43:14;102833.38;;;7.84;43.39
77147;BME280;66121;52.584;9.694;2023-02-28T12:46:00;102824.41;;;7.69;43.17
77147;BME280;66121;52.584;9.694;2023-02-28T12:48:39;102824.44;;;7.78;44.02
77147;BME280;66121;52.584;9.694;2023-02-28T12:51:08;102820.38;;;7.98;42.28
77147;BME280;66121;52.584;9.694;2023-02-28T12:56:19;102817.50;;;7.80;43.56
77147;BME280;66121;52.584;9.694;2023-02-28T12:59:21;102813.59;;;7.73;43.15
77147;BME280;66121;52.584;9.694;2023-02-28T13:02:13;102806.91;;;8.10;43.55
77147;BME280;66121;52.584;9.694;2023-02-28T13:05:06;102804.59;;;8.65;42.30
77147;BME280;66121;52.584;9.694;2023-02-28T13:10:12;102799.59;;;8.36;41.75
77147;BME280;66121;52.584;9.694;2023-02-28T13:12:47;102801.00;;;9.63;40.52
77147;BME280;66121;52.584;9.694;2023-02-28T13:15:18;102791.44;;;9.61;41.89
77147;BME280;66121;52.584;9.694;2023-02-28T13:17:49;102792.69;;;10.06;39.18
77147;BME280;66121;52.584;9.694;2023-02-28T13:20:24;102788.94;;;10.57;38.12
77147;BME280;66121;52.584;9.694;2023-02-28T13:22:52;102780.69;;;9.85;38.04
77147;BME280;66121;52.584;9.694;2023-02-28T13:27:46;102773.72;;;9.88;38.82
77147;BME280;66121;52.584;9.694;2023-02-28T13:36:06;102772.09;;;9.95;36.52
77147;BME280;66121;52.584;9.694;2023-02-28T13:38:35;102771.81;;;9.80;38.10
77147;BME280;66121;52.584;9.694;2023-02-28T13:44:04;102774.72;;;10.76;37.83
77147;BME280;66121;52.584;9.694;2023-02-28T13:46:32;102778.22;;;10.18;36.29
77147;BME280;66121;52.584;9.694;2023-02-28T13:52:33;102778.94;;;9.55;39.25
77147;BME280;66121;52.584;9.694;2023-02-28T13:54:58;102772.69;;;10.64;36.82
77147;BME280;66121;52.584;9.694;2023-02-28T13:58:00;102769.44;;;10.91;37.51
77147;BME280;66121;52.584;9.694;2023-02-28T14:00:43;102775.28;;;10.61;35.55
77147;BME280;66121;52.584;9.694;2023-02-28T14:05:47;102764.00;;;10.45;36.81
77147;BME280;66121;52.584;9.694;2023-02-28T14:08:16;102758.69;;;10.69;38.40
77147;BME280;66121;52.584;9.694;2023-02-28T14:16:00;102758.38;;;12.19;35.98
77147;BME280;66121;52.584;9.694;2023-02-28T14:20:58;102761.34;;;10.19;36.47
77147;BME280;66121;52.584;9.694;2023-02-28T14:23:38;102759.38;;;10.58;37.59
77147;BME280;66121;52.584;9.694;2023-02-28T14:29:18;102747.31;;;10.71;37.34
77147;BME280;66121;52.584;9.694;2023-02-28T14:31:58;102757.56;;;9.43;38.23
77147;BME280;66121;52.584;9.694;2023-02-28T14:34:36;102760.00;;;9.45;38.68
77147;BME280;66121;52.584;9.694;2023-02-28T14:37:05;102759.66;;;9.38;37.35
77147;BME280;66121;52.584;9.694;2023-02-28T14:39:33;102765.34;;;9.24;38.65
77147;BME280;66121;52.584;9.694;2023-02-28T14:41:59;102768.25;;;9.02;40.61